Time;durP1;ratioP1;P1;durP2;ratioP2;P2;SDS_P1;SDS_P2;PMS_P1;PMS_P2;Temp;Humidity;BMP_temperature;BMP_pressure;BME280_temperature;BME280_humidity;BME280_pressure;Samples;Min_cycle;Max_cycle;Signal;HPM_P1;HPM_P2
2023/03/23 00:01:19;;;;;;;1.50;1.23;;;13.10;99.90;;;;;;5072219;28;20051;-75
2023/03/23 00:03:47;;;;;;;4.13;1.35;;;13.20;99.90;;;;;;5072348;28;20040;-75
2023/03/23 00:06:17;;;;;;;2.30;1.50;;;13.30;99.90;;;;;;5072014;28;20477;-75
2023/03/23 00:08:46;;;;;;;3.83;1.38;;;13.20;99.90;;;;;;5072103;28;20465;-75
2023/03/23 00:11:20;;;;;;;1.02;0.93;;;13.20;99.90;;;;;;5070888;28;20062;-75
2023/03/23 00:13:51;;;;;;;0.75;0.52;;;13.20;99.90;;;;;;5071122;28;20037;-75
2023/03/23 00:16:30;;;;;;;0.85;0.60;;;13.20;99.90;;;;;;5072297;28;20025;-75
2023/03/23 00:18:57;;;;;;;1.48;1.38;;;13.20;99.90;;;;;;5076157;28;20036;-76
2023/03/23 00:21:34;;;;;;;6.03;0.77;;;13.20;99.90;;;;;;5075761;28;20027;-75
2023/03/23 00:24:06;;;;;;;4.13;1.50;;;13.10;99.90;;;;;;5075761;28;20127;-76
2023/03/23 00:26:36;;;;;;;0.55;0.45;;;13.10;99.90;;;;;;5075674;28;20059;-76
2023/03/23 00:29:05;;;;;;;1.63;0.98;;;13.20;99.90;;;;;;5074523;28;20024;-74
2023/03/23 00:31:32;;;;;;;5.70;0.95;;;13.10;99.90;;;;;;5074310;28;20024;-75
2023/03/23 00:34:01;;;;;;;2.50;1.40;;;13.10;99.90;;;;;;5075937;28;20029;-75
2023/03/23 00:36:28;;;;;;;2.03;1.70;;;13.10;99.90;;;;;;5074626;28;20554;-75
2023/03/23 00:38:54;;;;;;;1.38;0.73;;;13.20;99.90;;;;;;5074943;28;20067;-75
2023/03/23 00:41:20;;;;;;;1.77;1.10;;;13.20;99.90;;;;;;5074299;28;20060;-75
2023/03/23 00:43:48;;;;;;;5.60;1.65;;;13.30;99.90;;;;;;5074008;28;20407;-75
2023/03/23 00:46:14;;;;;;;4.82;1.88;;;13.20;99.90;;;;;;5075497;28;20229;-75
2023/03/23 00:48:44;;;;;;;3.67;1.08;;;13.20;99.90;;;;;;5074150;28;20119;-75
2023/03/23 00:51:11;;;;;;;0.73;0.50;;;13.20;99.90;;;;;;5074378;28;20044;-75
2023/03/23 00:53:40;;;;;;;3.97;1.80;;;13.20;99.90;;;;;;5073942;28;20024;-75
2023/03/23 00:56:07;;;;;;;6.63;1.50;;;13.30;99.90;;;;;;5075074;28;20039;-75
2023/03/23 00:58:34;;;;;;;1.15;1.05;;;13.30;99.90;;;;;;5075525;28;20465;-75
2023/03/23 01:01:00;;;;;;;0.10;0.10;;;13.30;99.90;;;;;;5073876;28;20036;-76
2023/03/23 01:03:26;;;;;;;1.17;1.00;;;13.40;99.90;;;;;;5075423;28;20032;-76
2023/03/23 01:05:52;;;;;;;1.60;0.88;;;13.30;99.90;;;;;;5074943;28;20119;-75
2023/03/23 01:08:19;;;;;;;3.42;1.52;;;13.30;99.90;;;;;;5073654;28;20025;-76
2023/03/23 01:10:45;;;;;;;0.70;0.70;;;13.30;99.90;;;;;;5074865;28;20032;-76
2023/03/23 01:13:12;;;;;;;0.00;0.00;;;13.30;99.90;;;;;;5073855;28;20021;-76
2023/03/23 01:15:38;;;;;;;1.92;1.58;;;13.30;99.90;;;;;;5073723;28;20075;-75
2023/03/23 01:18:04;;;;;;;7.13;1.90;;;13.20;99.90;;;;;;5073478;28;20052;-76
2023/03/23 01:20:31;;;;;;;7.35;1.40;;;13.10;99.90;;;;;;5075260;28;20013;-76
2023/03/23 01:23:00;;;;;;;0.63;0.45;;;13.20;99.90;;;;;;5074491;28;20043;-76
2023/03/23 01:25:31;;;;;;;3.03;1.73;;;13.20;99.90;;;;;;5073612;28;20021;-76
2023/03/23 01:27:58;;;;;;;2.77;1.93;;;13.20;99.90;;;;;;5073189;28;20032;-75
2023/03/23 01:30:24;;;;;;;1.20;0.88;;;13.20;99.90;;;;;;5073323;28;20054;-75
2023/03/23 01:32:51;;;;;;;0.35;0.35;;;13.30;99.90;;;;;;5073294;28;20382;-76
2023/03/23 01:35:18;;;;;;;4.28;0.98;;;13.20;99.90;;;;;;5073386;28;20032;-76
2023/03/23 01:37:44;;;;;;;0.82;0.77;;;13.20;99.90;;;;;;5072876;28;20020;-76
2023/03/23 01:40:10;;;;;;;1.65;1.05;;;13.20;99.90;;;;;;5073254;28;20032;-75
2023/03/23 01:42:38;;;;;;;0.63;0.47;;;13.20;99.90;;;;;;5073162;28;20488;-76
2023/03/23 01:45:28;;;;;;;1.35;0.45;;;13.20;99.90;;;;;;5073174;28;20040;-75
2023/03/23 01:48:35;;;;;;;1.42;0.77;;;13.10;99.90;;;;;;5073103;28;20389;-76
2023/03/23 01:51:11;;;;;;;0.95;0.88;;;13.10;99.90;;;;;;5059441;28;20029;-75
2023/03/23 01:53:43;;;;;;;0.77;0.77;;;13.10;99.90;;;;;;5073210;28;20025;-75
2023/03/23 01:56:11;;;;;;;2.88;1.42;;;13.00;99.90;;;;;;5073105;28;20389;-75
2023/03/23 01:58:38;;;;;;;3.42;1.20;;;13.10;99.90;;;;;;5073968;28;20517;-75
2023/03/23 02:01:11;;;;;;;1.00;0.80;;;13.10;99.90;;;;;;5074093;28;20020;-75
2023/03/23 02:03:41;;;;;;;2.38;1.10;;;13.10;99.90;;;;;;5072578;28;20354;-75
2023/03/23 02:06:07;;;;;;;1.00;0.65;;;13.10;99.90;;;;;;5072515;28;20388;-75
2023/03/23 02:08:40;;;;;;;2.67;1.20;;;13.10;99.90;;;;;;5072769;28;20028;-75
2023/03/23 02:11:21;;;;;;;6.53;1.33;;;13.20;99.90;;;;;;5052907;28;20021;-75
2023/03/23 02:13:47;;;;;;;2.28;0.57;;;13.20;99.90;;;;;;5065831;28;20043;-75
2023/03/23 02:16:26;;;;;;;1.05;0.73;;;13.20;99.90;;;;;;5072525;28;20472;-75
2023/03/23 02:19:16;;;;;;;1.52;1.33;;;13.30;99.90;;;;;;5073788;28;20032;-76
2023/03/23 02:21:51;;;;;;;1.33;0.75;;;13.20;99.90;;;;;;5073737;28;20032;-76
2023/03/23 02:24:49;;;;;;;1.42;1.05;;;13.20;99.90;;;;;;5072436;28;20045;-75
2023/03/23 02:27:34;;;;;;;2.25;0.88;;;13.20;99.90;;;;;;5039422;28;20028;-75
2023/03/23 02:30:31;;;;;;;3.47;1.85;;;13.10;99.90;;;;;;5069279;28;20033;-75
2023/03/23 02:33:11;;;;;;;0.70;0.70;;;13.20;99.90;;;;;;5073747;28;20380;-75
2023/03/23 02:35:49;;;;;;;2.22;1.13;;;13.20;99.90;;;;;;5058112;28;20021;-75
2023/03/23 02:38:41;;;;;;;1.83;1.30;;;13.20;99.90;;;;;;5071273;28;20029;-75
2023/03/23 02:41:10;;;;;;;2.53;1.30;;;13.20;99.90;;;;;;5072159;28;20494;-75
2023/03/23 02:43:44;;;;;;;5.03;2.03;;;13.10;99.90;;;;;;5071898;28;20024;-75
2023/03/23 02:46:10;;;;;;;4.47;0.98;;;13.20;99.90;;;;;;5071962;28;20503;-75
2023/03/23 02:48:39;;;;;;;1.17;0.70;;;13.20;99.90;;;;;;5071425;28;20024;-75
2023/03/23 02:51:07;;;;;;;6.18;1.17;;;13.20;99.90;;;;;;5071884;28;20432;-75
2023/03/23 02:53:37;;;;;;;0.85;0.60;;;13.20;99.90;;;;;;5071762;28;20542;-76
2023/03/23 02:56:06;;;;;;;5.63;0.50;;;13.10;99.90;;;;;;5071954;28;20075;-75
2023/03/23 02:58:32;;;;;;;3.92;1.00;;;13.10;99.90;;;;;;5071819;28;20021;-75
2023/03/23 03:00:58;;;;;;;1.20;0.98;;;13.10;99.90;;;;;;5071508;28;20024;-75
2023/03/23 03:03:28;;;;;;;9.38;2.00;;;13.10;99.90;;;;;;5073781;28;20040;-75
2023/03/23 03:06:19;;;;;;;3.75;0.98;;;13.10;99.90;;;;;;5091951;28;20493;-76
2023/03/23 03:08:47;;;;;;;5.03;1.08;;;13.10;99.90;;;;;;5092889;28;20028;-75
2023/03/23 03:11:16;;;;;;;2.03;0.88;;;13.10;99.90;;;;;;5093137;28;20023;-75
2023/03/23 03:13:47;;;;;;;3.42;0.65;;;13.00;99.90;;;;;;5092962;28;20243;-76
2023/03/23 03:16:28;;;;;;;0.10;0.10;;;13.10;99.90;;;;;;5091987;28;20108;-76
2023/03/23 03:19:03;;;;;;;0.77;0.45;;;13.10;99.90;;;;;;5091288;28;20181;-76
2023/03/23 03:21:33;;;;;;;5.68;0.30;;;13.10;99.90;;;;;;5091656;28;20020;-75
2023/03/23 03:24:03;;;;;;;2.73;1.20;;;13.10;99.90;;;;;;5091558;28;20044;-75
2023/03/23 03:26:34;;;;;;;3.67;0.90;;;13.10;99.90;;;;;;5091800;28;20027;-75
2023/03/23 03:29:26;;;;;;;4.82;1.45;;;13.10;99.90;;;;;;5091698;28;20157;-75
2023/03/23 03:31:56;;;;;;;3.28;1.33;;;13.10;99.90;;;;;;5091150;28;20111;-75
2023/03/23 03:34:25;;;;;;;1.35;0.80;;;13.10;99.90;;;;;;5091642;28;20027;-75
2023/03/23 03:36:54;;;;;;;4.25;1.05;;;13.00;99.90;;;;;;5091625;28;20036;-75
2023/03/23 03:39:21;;;;;;;2.88;1.08;;;13.00;99.90;;;;;;5091327;28;20107;-75
2023/03/23 03:41:47;;;;;;;2.95;0.90;;;13.10;99.90;;;;;;5091524;28;20032;-75
2023/03/23 03:44:13;;;;;;;0.03;0.03;;;13.10;99.90;;;;;;5091169;28;20036;-75
2023/03/23 03:46:40;;;;;;;0.45;0.40;;;13.00;99.90;;;;;;5091273;28;20028;-75
2023/03/23 03:49:07;;;;;;;3.47;0.82;;;13.10;99.90;;;;;;5091256;28;20042;-75
2023/03/23 03:51:37;;;;;;;0.75;0.57;;;13.00;99.90;;;;;;5093905;28;20016;-75
2023/03/23 03:54:05;;;;;;;0.38;0.38;;;13.00;99.90;;;;;;5095292;28;20034;-75
2023/03/23 03:56:34;;;;;;;4.93;1.33;;;13.00;99.90;;;;;;5095803;28;20122;-75
2023/03/23 03:59:17;;;;;;;1.60;0.65;;;13.00;99.90;;;;;;5095298;28;20432;-76
2023/03/23 04:01:54;;;;;;;1.80;0.75;;;12.80;99.90;;;;;;5079570;28;20115;-75
2023/03/23 04:04:21;;;;;;;2.55;0.93;;;12.80;99.90;;;;;;5078782;28;20496;-74
2023/03/23 04:06:48;;;;;;;7.45;1.48;;;12.70;99.90;;;;;;5095568;28;20020;-75
2023/03/23 04:09:15;;;;;;;3.70;1.50;;;12.70;99.90;;;;;;5094951;28;20024;-76
2023/03/23 04:11:41;;;;;;;3.63;1.08;;;12.80;99.90;;;;;;5096543;28;20024;-76
2023/03/23 04:14:26;;;;;;;0.95;0.65;;;12.70;99.90;;;;;;5096343;28;20048;-76
2023/03/23 04:16:56;;;;;;;1.70;0.90;;;12.70;99.90;;;;;;5095010;28;20369;-75
2023/03/23 04:19:28;;;;;;;0.88;0.35;;;12.70;99.90;;;;;;5095161;28;20376;-75
2023/03/23 04:21:54;;;;;;;5.00;1.10;;;12.70;99.90;;;;;;5095158;28;20384;-76
2023/03/23 04:24:23;;;;;;;3.20;0.40;;;12.70;99.90;;;;;;5095015;28;20398;-75
2023/03/23 04:26:51;;;;;;;3.20;1.00;;;12.80;99.90;;;;;;5094645;28;20020;-75
2023/03/23 04:29:22;;;;;;;3.25;0.75;;;12.90;99.90;;;;;;5095105;28;20118;-75
2023/03/23 04:32:14;;;;;;;3.50;0.93;;;12.80;99.90;;;;;;5087514;28;20040;-75
2023/03/23 04:34:46;;;;;;;1.60;0.52;;;12.80;99.90;;;;;;5094680;28;20036;-75
2023/03/23 04:37:13;;;;;;;4.03;0.90;;;12.80;99.90;;;;;;5094771;28;20016;-76
2023/03/23 04:39:39;;;;;;;8.15;1.52;;;12.90;99.90;;;;;;5094503;28;20123;-75
2023/03/23 04:42:06;;;;;;;5.38;0.98;;;12.80;99.90;;;;;;5094539;28;20032;-75
2023/03/23 04:44:56;;;;;;;0.80;0.63;;;12.80;99.90;;;;;;5084904;28;20426;-75
2023/03/23 04:47:39;;;;;;;1.13;0.82;;;12.80;99.90;;;;;;5094432;28;20024;-75
2023/03/23 04:50:09;;;;;;;6.35;2.05;;;12.70;99.90;;;;;;5094331;28;20034;-75
2023/03/23 04:52:37;;;;;;;1.48;0.50;;;12.70;99.90;;;;;;5094761;28;20082;-75
2023/03/23 04:55:09;;;;;;;1.55;0.65;;;12.70;99.90;;;;;;5094809;28;20377;-76
2023/03/23 04:57:36;;;;;;;7.90;1.67;;;12.70;99.90;;;;;;5094201;28;20539;-74
2023/03/23 05:00:25;;;;;;;3.92;1.98;;;12.70;99.90;;;;;;5094195;28;20487;-74
2023/03/23 05:02:55;;;;;;;1.15;0.63;;;12.80;99.90;;;;;;5093673;28;20541;-76
2023/03/23 05:05:24;;;;;;;1.00;0.40;;;12.70;99.90;;;;;;5095635;28;20097;-76
2023/03/23 05:07:51;;;;;;;2.50;0.70;;;12.70;99.90;;;;;;5093968;28;20020;-76
2023/03/23 05:10:21;;;;;;;2.78;0.40;;;12.70;99.90;;;;;;5093853;28;20044;-75
2023/03/23 05:12:47;;;;;;;2.05;0.75;;;12.80;99.90;;;;;;5093816;28;20434;-75
2023/03/23 05:15:16;;;;;;;4.22;1.08;;;12.80;99.90;;;;;;5093719;28;20118;-74
2023/03/23 05:17:44;;;;;;;1.98;0.63;;;12.80;99.90;;;;;;5077294;28;20384;-76
2023/03/23 05:20:18;;;;;;;0.65;0.60;;;12.80;99.90;;;;;;5093768;28;20027;-75
2023/03/23 05:22:49;;;;;;;10.13;1.35;;;12.80;99.90;;;;;;5093659;28;20028;-75
2023/03/23 05:25:19;;;;;;;2.65;0.90;;;12.80;99.90;;;;;;5093711;28;20092;-75
2023/03/23 05:27:52;;;;;;;7.10;1.35;;;12.70;99.90;;;;;;5093427;28;20370;-76
2023/03/23 05:30:48;;;;;;;1.33;0.75;;;12.70;99.90;;;;;;5089403;28;20388;-75
2023/03/23 05:33:15;;;;;;;0.22;0.20;;;12.70;99.90;;;;;;5093292;28;20035;-75
2023/03/23 05:35:49;;;;;;;1.02;0.50;;;12.70;99.90;;;;;;5093571;28;20065;-76
2023/03/23 05:38:19;;;;;;;4.70;1.08;;;12.70;99.90;;;;;;5093136;28;20365;-75
2023/03/23 05:40:46;;;;;;;3.10;0.85;;;12.70;99.90;;;;;;5093694;28;20028;-75
2023/03/23 05:43:16;;;;;;;2.35;1.20;;;12.70;99.90;;;;;;5093031;28;20020;-75
2023/03/23 05:46:01;;;;;;;5.82;1.25;;;12.70;99.90;;;;;;5093473;28;20032;-75
2023/03/23 05:48:27;;;;;;;7.45;0.80;;;12.60;99.90;;;;;;5093098;28;20031;-75
2023/03/23 05:50:53;;;;;;;1.98;0.82;;;12.60;99.90;;;;;;5081982;28;20408;-74
2023/03/23 05:53:23;;;;;;;4.95;1.42;;;12.60;99.90;;;;;;5093217;28;20027;-75
2023/03/23 05:55:49;;;;;;;3.38;1.63;;;12.50;99.90;;;;;;5076437;28;20043;-75
2023/03/23 05:58:22;;;;;;;2.85;1.05;;;12.50;99.90;;;;;;5093822;28;20324;-75
2023/03/23 06:00:48;;;;;;;2.63;0.55;;;12.50;99.90;;;;;;5092808;28;20024;-75
2023/03/23 06:03:22;;;;;;;3.95;1.02;;;12.40;99.90;;;;;;5092277;28;20085;-75
2023/03/23 06:06:00;;;;;;;4.50;1.10;;;12.40;99.90;;;;;;5092788;28;20039;-76
2023/03/23 06:08:33;;;;;;;4.25;0.82;;;12.30;99.90;;;;;;5092758;28;20024;-75
2023/03/23 06:10:59;;;;;;;0.30;0.30;;;12.20;99.90;;;;;;5092354;28;20036;-75
2023/03/23 06:13:26;;;;;;;0.75;0.60;;;12.10;99.90;;;;;;5091786;28;20024;-75
2023/03/23 06:15:59;;;;;;;11.93;2.10;;;12.00;99.90;;;;;;5092725;28;20483;-76
2023/03/23 06:18:40;;;;;;;2.35;1.20;;;11.80;99.90;;;;;;5094253;28;20475;-75
2023/03/23 06:21:25;;;;;;;9.32;1.70;;;11.60;99.90;;;;;;5092777;28;20040;-75
2023/03/23 06:24:01;;;;;;;1.10;0.40;;;11.30;99.90;;;;;;5080980;28;20032;-76
2023/03/23 06:26:33;;;;;;;2.28;1.27;;;11.10;99.90;;;;;;5092827;28;20028;-75
2023/03/23 06:29:10;;;;;;;4.25;0.50;;;10.80;99.90;;;;;;5075686;28;20028;-76
2023/03/23 06:31:49;;;;;;;0.40;0.40;;;10.70;99.90;;;;;;5076326;28;20048;-76
2023/03/23 06:34:15;;;;;;;0.77;0.47;;;10.70;99.90;;;;;;5085285;28;20028;-75
2023/03/23 06:37:01;;;;;;;2.13;0.73;;;10.80;99.90;;;;;;5072956;28;20041;-76
2023/03/23 06:39:38;;;;;;;0.50;0.45;;;10.70;99.90;;;;;;5075650;28;20036;-75
2023/03/23 06:42:24;;;;;;;1.75;0.75;;;10.70;99.90;;;;;;5072264;28;20060;-75
2023/03/23 06:45:04;;;;;;;1.85;0.52;;;10.80;99.90;;;;;;5082572;28;20093;-75
2023/03/23 06:47:30;;;;;;;0.70;0.60;;;10.70;99.90;;;;;;5080231;28;20527;-76
2023/03/23 06:49:57;;;;;;;4.75;1.10;;;10.60;99.90;;;;;;5062270;28;20029;-75
2023/03/23 06:52:26;;;;;;;4.55;1.08;;;10.70;99.90;;;;;;5073982;28;20016;-76
2023/03/23 06:54:53;;;;;;;0.32;0.20;;;10.60;99.90;;;;;;5064127;28;20024;-75
2023/03/23 06:57:20;;;;;;;0.10;0.10;;;10.60;99.90;;;;;;5084948;28;20026;-75
2023/03/23 06:59:47;;;;;;;3.15;1.05;;;10.70;99.90;;;;;;5080208;28;20168;-75
2023/03/23 07:02:14;;;;;;;1.85;0.85;;;10.70;99.90;;;;;;5076002;28;20051;-75
2023/03/23 07:04:42;;;;;;;4.68;1.20;;;10.80;99.90;;;;;;5071162;28;20040;-75
2023/03/23 07:07:18;;;;;;;0.28;0.28;;;10.80;99.90;;;;;;5080100;28;20013;-75
2023/03/23 07:10:14;;;;;;;0.40;0.40;;;10.70;99.90;;;;;;5074983;28;20032;-76
2023/03/23 07:12:41;;;;;;;1.70;1.17;;;10.70;99.90;;;;;;5067565;28;20051;-75
2023/03/23 07:15:10;;;;;;;6.47;2.55;;;10.60;99.90;;;;;;5061183;28;20536;-75
2023/03/23 07:17:38;;;;;;;2.30;0.60;;;10.50;99.90;;;;;;5086673;28;20024;-76
2023/03/23 07:20:12;;;;;;;7.32;1.40;;;10.40;99.90;;;;;;5088959;28;20016;-75
2023/03/23 07:22:40;;;;;;;1.90;1.05;;;10.40;99.90;;;;;;5076404;28;20038;-75
2023/03/23 07:25:20;;;;;;;5.18;1.08;;;10.40;99.90;;;;;;5089603;28;20064;-76
2023/03/23 07:27:50;;;;;;;1.55;0.50;;;10.40;99.90;;;;;;5090733;28;20024;-75
2023/03/23 07:30:17;;;;;;;2.10;0.88;;;10.40;99.90;;;;;;5090505;28;20773;-76
2023/03/23 07:32:42;;;;;;;1.40;0.70;;;10.40;99.90;;;;;;5082591;28;20031;-75
2023/03/23 07:35:09;;;;;;;0.65;0.63;;;10.40;99.90;;;;;;5075187;28;20028;-76
2023/03/23 07:37:48;;;;;;;0.20;0.20;;;10.40;99.90;;;;;;5079226;28;20037;-75
2023/03/23 07:40:15;;;;;;;4.15;0.75;;;10.40;99.90;;;;;;5076331;28;20031;-76
2023/03/23 07:42:50;;;;;;;0.10;0.10;;;10.30;99.90;;;;;;5066353;28;20074;-75
2023/03/23 07:45:25;;;;;;;4.43;0.85;;;10.40;99.90;;;;;;5074702;28;20123;-76
2023/03/23 07:47:51;;;;;;;3.55;0.82;;;10.50;99.90;;;;;;5076144;28;20025;-76
2023/03/23 07:50:17;;;;;;;1.27;0.47;;;10.60;99.90;;;;;;5072667;28;20024;-75
2023/03/23 07:52:44;;;;;;;1.77;0.68;;;10.60;99.90;;;;;;5060811;28;20029;-75
2023/03/23 07:55:17;;;;;;;0.47;0.47;;;10.50;99.90;;;;;;5070428;28;20028;-75
2023/03/23 07:58:02;;;;;;;0.38;0.38;;;10.60;99.90;;;;;;5078499;28;20024;-76
2023/03/23 08:00:29;;;;;;;1.38;0.57;;;10.50;99.90;;;;;;5081100;28;20024;-76
2023/03/23 08:02:57;;;;;;;0.82;0.28;;;10.50;99.90;;;;;;5073435;28;20403;-75
2023/03/23 08:05:33;;;;;;;0.25;0.25;;;10.70;99.90;;;;;;5070652;28;20424;-76
2023/03/23 08:08:18;;;;;;;1.00;0.82;;;10.90;99.90;;;;;;5070565;28;20077;-75
2023/03/23 08:11:17;;;;;;;3.13;0.77;;;10.70;99.90;;;;;;5068408;28;20037;-75
2023/03/23 08:14:09;;;;;;;31.75;0.95;;;10.70;99.90;;;;;;5081299;28;20028;-75
2023/03/23 08:16:57;;;;;;;2.30;1.58;;;10.70;99.90;;;;;;5071670;28;20379;-75
2023/03/23 08:19:57;;;;;;;0.40;0.40;;;10.70;99.90;;;;;;5085371;28;20032;-76
2023/03/23 08:22:53;;;;;;;1.25;0.30;;;10.70;99.90;;;;;;5063451;28;20115;-75
2023/03/23 08:25:38;;;;;;;;;;;11.00;99.90;;;;;;5074964;28;20033;-76
2023/03/23 08:28:30;;;;;;;0.60;0.47;;;10.90;99.90;;;;;;5071899;28;20360;-75
2023/03/23 08:31:34;;;;;;;3.17;1.13;;;11.20;99.90;;;;;;5068657;28;20037;-75
2023/03/23 08:34:01;;;;;;;0.45;0.20;;;11.30;99.90;;;;;;5072919;28;20071;-75
2023/03/23 08:36:46;;;;;;;0.10;0.10;;;11.50;99.90;;;;;;5073725;28;20032;-75
2023/03/23 08:39:14;;;;;;;0.10;0.10;;;11.70;99.90;;;;;;5075062;28;20392;-75
2023/03/23 08:42:00;;;;;;;5.22;1.10;;;11.60;99.90;;;;;;5075089;28;20068;-75
2023/03/23 08:45:01;;;;;;;3.00;1.30;;;11.80;99.90;;;;;;5064060;28;20033;-75
2023/03/23 08:48:04;;;;;;;2.00;1.80;;;11.90;99.90;;;;;;5078395;28;20129;-75
2023/03/23 08:51:00;;;;;;;1.25;1.08;;;12.00;99.90;;;;;;5073429;28;20048;-75
2023/03/23 08:53:47;;;;;;;0.80;0.40;;;12.00;99.90;;;;;;5077331;28;20028;-75
2023/03/23 08:56:32;;;;;;;0.38;0.38;;;12.00;99.90;;;;;;5086745;28;20035;-75
2023/03/23 08:59:16;;;;;;;3.22;0.35;;;12.10;99.90;;;;;;5079345;28;20044;-75
2023/03/23 09:01:54;;;;;;;15.25;1.63;;;12.20;99.90;;;;;;5077254;28;20032;-75
2023/03/23 09:04:43;;;;;;;5.25;1.05;;;12.30;99.90;;;;;;5059290;28;20049;-75
2023/03/23 09:07:28;;;;;;;0.40;0.25;;;12.20;99.90;;;;;;5083072;28;20043;-75
2023/03/23 09:09:55;;;;;;;1.15;0.77;;;12.30;99.90;;;;;;5086013;28;20036;-75
2023/03/23 09:12:21;;;;;;;3.00;1.58;;;12.70;99.90;;;;;;5088899;28;20043;-75
2023/03/23 09:14:47;;;;;;;0.60;0.38;;;12.80;99.90;;;;;;5093038;28;20086;-75
2023/03/23 09:17:13;;;;;;;6.70;2.40;;;12.90;99.90;;;;;;5093875;28;20081;-75
2023/03/23 09:19:39;;;;;;;1.85;1.05;;;12.90;99.90;;;;;;5094033;28;20065;-75
2023/03/23 09:22:05;;;;;;;5.55;0.50;;;12.90;99.90;;;;;;5067765;28;20024;-75
2023/03/23 09:24:31;;;;;;;2.50;0.75;;;13.00;99.90;;;;;;5093870;28;20032;-75
2023/03/23 09:26:58;;;;;;;4.07;0.63;;;13.20;99.90;;;;;;5075815;28;20020;-76
2023/03/23 09:29:25;;;;;;;2.30;0.68;;;13.10;99.90;;;;;;5093028;28;20024;-75
2023/03/23 09:31:51;;;;;;;11.65;1.00;;;13.10;99.90;;;;;;5080158;28;20055;-76
2023/03/23 09:34:17;;;;;;;1.27;0.57;;;13.10;99.90;;;;;;5090317;28;20052;-76
2023/03/23 09:36:44;;;;;;;3.97;3.58;;;13.10;99.90;;;;;;5089068;28;20468;-75
2023/03/23 09:39:11;;;;;;;6.18;1.00;;;13.20;99.90;;;;;;5093842;28;20039;-76
2023/03/23 09:41:44;;;;;;;1.52;0.45;;;13.30;99.90;;;;;;5092794;28;20086;-75
2023/03/23 09:44:36;;;;;;;1.58;1.13;;;13.40;99.90;;;;;;5092541;28;20036;-76
2023/03/23 09:47:11;;;;;;;1.65;0.80;;;13.40;99.90;;;;;;5093777;28;20031;-75
2023/03/23 09:49:51;;;;;;;0.90;0.50;;;13.40;99.90;;;;;;5092180;28;20534;-75
2023/03/23 09:52:18;;;;;;;0.75;0.43;;;13.60;99.90;;;;;;5088416;28;20024;-76
2023/03/23 09:54:48;;;;;;;7.30;1.33;;;13.70;99.90;;;;;;5093208;28;20031;-74
2023/03/23 09:57:37;;;;;;;0.00;0.00;;;13.70;99.90;;;;;;5070851;28;20045;-75
2023/03/23 10:00:17;;;;;;;2.33;0.75;;;14.00;99.90;;;;;;5072341;28;20071;-74
2023/03/23 10:03:02;;;;;;;0.45;0.45;;;13.80;99.90;;;;;;5076311;28;20024;-75
2023/03/23 10:05:40;;;;;;;3.42;1.27;;;14.00;99.90;;;;;;5072366;28;20059;-75
2023/03/23 10:08:37;;;;;;;9.23;3.70;;;14.00;99.90;;;;;;5062096;28;20024;-74
2023/03/23 10:11:07;;;;;;;2.10;1.27;;;13.90;99.90;;;;;;5076236;28;20036;-74
2023/03/23 10:13:45;;;;;;;0.43;0.43;;;13.80;99.90;;;;;;5084486;28;20024;-74
2023/03/23 10:16:17;;;;;;;0.35;0.30;;;13.70;99.90;;;;;;5081529;28;20024;-75
2023/03/23 10:18:47;;;;;;;;;;;13.80;99.90;;;;;;5093299;28;20464;-74
2023/03/23 10:21:19;;;;;;;1.00;0.28;;;14.00;99.90;;;;;;5093265;28;19915;-74
2023/03/23 10:24:01;;;;;;;1.45;0.47;;;14.00;99.90;;;;;;5087745;28;20111;-74
2023/03/23 10:26:30;;;;;;;1.15;0.40;;;13.80;99.90;;;;;;5091989;28;20032;-74
2023/03/23 10:29:11;;;;;;;1.27;0.47;;;13.80;99.90;;;;;;5092828;28;20028;-74
2023/03/23 10:31:43;;;;;;;1.25;0.32;;;13.60;99.90;;;;;;5077608;28;20103;-74
2023/03/23 10:34:27;;;;;;;1.58;0.50;;;13.60;99.90;;;;;;5058683;28;20100;-74
2023/03/23 10:37:06;;;;;;;5.60;0.70;;;13.80;99.90;;;;;;5060051;28;20454;-74
2023/03/23 10:39:42;;;;;;;2.95;0.93;;;13.90;99.90;;;;;;5076221;28;20021;-74
2023/03/23 10:42:09;;;;;;;7.43;2.22;;;13.90;99.90;;;;;;5060916;28;20080;-74
2023/03/23 10:44:36;;;;;;;3.95;0.43;;;14.10;99.90;;;;;;5077728;28;20093;-75
2023/03/23 10:47:07;;;;;;;2.72;0.93;;;14.00;99.90;;;;;;5085074;28;20067;-75
2023/03/23 10:49:33;;;;;;;4.83;3.07;;;14.30;99.90;;;;;;5078967;28;20033;-74
2023/03/23 10:52:16;;;;;;;5.63;1.30;;;14.10;99.90;;;;;;5078028;28;20036;-74
2023/03/23 10:55:02;;;;;;;5.57;0.85;;;14.20;99.90;;;;;;5060031;28;20032;-75
2023/03/23 10:57:34;;;;;;;14.27;0.45;;;14.60;99.90;;;;;;5072548;28;20101;-74
2023/03/23 11:00:21;;;;;;;0.40;0.40;;;14.50;99.90;;;;;;5082497;28;20024;-74
2023/03/23 11:02:58;;;;;;;1.38;0.65;;;14.40;99.90;;;;;;5074077;28;20037;-74
2023/03/23 11:05:33;;;;;;;2.40;1.17;;;14.70;99.90;;;;;;5072620;28;20090;-74
2023/03/23 11:08:01;;;;;;;6.72;1.40;;;14.90;99.90;;;;;;5086403;28;20039;-74
2023/03/23 11:10:38;;;;;;;0.77;0.68;;;15.30;99.90;;;;;;5085798;28;20024;-74
2023/03/23 11:13:09;;;;;;;3.72;1.13;;;15.30;99.90;;;;;;5085221;28;20024;-74
2023/03/23 11:15:39;;;;;;;4.03;0.82;;;15.10;99.90;;;;;;5091941;28;20024;-75
2023/03/23 11:18:18;;;;;;;3.67;1.45;;;15.30;99.90;;;;;;5083590;28;20028;-75
2023/03/23 11:20:46;;;;;;;4.78;1.80;;;15.10;99.90;;;;;;5091917;28;20111;-74
2023/03/23 11:23:22;;;;;;;2.83;0.52;;;15.20;99.90;;;;;;5091800;28;20020;-74
2023/03/23 11:25:59;;;;;;;1.45;0.68;;;15.10;99.90;;;;;;5089965;28;20054;-74
2023/03/23 11:28:34;;;;;;;1.58;0.70;;;15.00;99.90;;;;;;5091892;28;20046;-74
2023/03/23 11:31:02;;;;;;;8.02;2.15;;;15.30;99.90;;;;;;5091734;28;20047;-74
2023/03/23 11:33:52;;;;;;;8.35;1.55;;;15.00;99.90;;;;;;5091677;28;20066;-74
2023/03/23 11:36:19;;;;;;;0.88;0.85;;;14.70;99.90;;;;;;5082320;28;20393;-74
2023/03/23 11:38:45;;;;;;;12.30;2.75;;;14.70;99.90;;;;;;5073317;28;20035;-74
2023/03/23 11:41:12;;;;;;;6.75;1.42;;;14.30;99.90;;;;;;5074227;28;20094;-74
2023/03/23 11:43:43;;;;;;;1.25;0.93;;;13.90;99.90;;;;;;5062675;28;20041;-74
2023/03/23 11:46:22;;;;;;;1.23;1.13;;;13.80;99.90;;;;;;5072564;28;20518;-74
2023/03/23 11:48:57;;;;;;;2.45;1.73;;;13.80;99.90;;;;;;5071319;28;20104;-74
2023/03/23 11:51:31;;;;;;;8.02;1.08;;;14.00;99.90;;;;;;5060177;28;20086;-74
2023/03/23 11:54:23;;;;;;;3.60;1.27;;;14.10;99.90;;;;;;5072009;28;20029;-73
2023/03/23 11:56:49;;;;;;;2.58;1.90;;;14.20;99.90;;;;;;5064672;28;20029;-75
2023/03/23 11:59:18;;;;;;;6.20;1.45;;;15.20;99.90;;;;;;5071360;28;20024;-72
2023/03/23 12:02:14;;;;;;;4.38;1.02;;;15.50;99.90;;;;;;5072021;28;20104;-72
2023/03/23 12:04:49;;;;;;;7.40;1.40;;;16.00;99.90;;;;;;5071798;28;20094;-72
2023/03/23 12:07:52;;;;;;;6.80;1.55;;;15.80;99.90;;;;;;5071906;28;20037;-72
2023/03/23 12:10:45;;;;;;;0.88;0.40;;;15.70;99.90;;;;;;5063985;28;20120;-72
2023/03/23 12:13:29;;;;;;;3.60;0.80;;;15.60;99.90;;;;;;5093019;28;20071;-72
2023/03/23 12:16:17;;;;;;;2.45;0.90;;;15.40;99.90;;;;;;5096312;28;20423;-72
2023/03/23 12:19:40;;;;;;;0.30;0.28;;;15.30;99.90;;;;;;5096457;28;20055;-72
2023/03/23 12:22:11;;;;;;;35.28;2.17;;;14.90;99.90;;;;;;5074456;28;20379;-72
2023/03/23 12:24:40;;;;;;;5.47;2.37;;;14.40;99.90;;;;;;5073734;28;20044;-72
2023/03/23 12:27:16;;;;;;;14.70;1.33;;;14.30;99.90;;;;;;5088206;28;20282;-72
2023/03/23 12:30:01;;;;;;;9.65;1.75;;;14.10;99.90;;;;;;5095951;28;20089;-72
2023/03/23 12:32:46;;;;;;;0.55;0.50;;;13.70;99.90;;;;;;5095797;28;20024;-72
2023/03/23 12:35:16;;;;;;;1.55;1.10;;;13.80;99.90;;;;;;5094228;28;20027;-72
2023/03/23 12:37:53;;;;;;;3.85;1.48;;;14.00;99.90;;;;;;5095837;28;20027;-72
2023/03/23 12:40:43;;;;;;;14.73;0.73;;;14.00;99.90;;;;;;5095723;28;20036;-72
2023/03/23 12:43:21;;;;;;;1.45;0.45;;;14.70;99.90;;;;;;5095492;28;20060;-73
2023/03/23 12:46:10;;;;;;;2.75;0.80;;;15.10;99.90;;;;;;5095834;28;20032;-72
2023/03/23 12:48:50;;;;;;;2.75;1.85;;;16.20;99.90;;;;;;5095688;28;20479;-72
2023/03/23 12:51:23;;;;;;;6.85;1.95;;;17.20;99.90;;;;;;5094421;28;20414;-74
2023/03/23 12:54:23;;;;;;;1.15;0.75;;;17.30;99.90;;;;;;5095607;28;20059;-73
2023/03/23 12:57:04;;;;;;;0.38;0.30;;;18.10;99.90;;;;;;5094312;28;20486;-73
2023/03/23 12:59:35;;;;;;;0.68;0.30;;;19.00;99.90;;;;;;5095604;28;20102;-72
2023/03/23 13:02:34;;;;;;;0.47;0.47;;;19.10;99.90;;;;;;5094394;28;20028;-72
2023/03/23 13:05:11;;;;;;;11.90;1.58;;;17.40;99.90;;;;;;5095437;28;20039;-72
2023/03/23 13:08:00;;;;;;;3.60;0.60;;;16.20;99.90;;;;;;5095151;28;20524;-72
2023/03/23 13:10:39;;;;;;;0.75;0.70;;;15.80;99.90;;;;;;5095588;28;20036;-73
2023/03/23 13:13:18;;;;;;;2.13;0.98;;;15.40;99.90;;;;;;5093657;28;20077;-72
2023/03/23 13:16:20;;;;;;;4.40;1.92;;;15.30;99.90;;;;;;5095283;28;20025;-73
2023/03/23 13:19:15;;;;;;;7.05;0.82;;;16.10;99.90;;;;;;5094318;28;20034;-72
2023/03/23 13:21:46;;;;;;;1.05;0.98;;;16.70;99.90;;;;;;5074943;28;20037;-72
2023/03/23 13:24:20;;;;;;;5.88;1.75;;;16.90;99.90;;;;;;5093447;28;20036;-72
2023/03/23 13:26:49;;;;;;;6.03;2.15;;;16.60;99.90;;;;;;5094670;28;20019;-72